<?xml version="1.0" encoding="UTF-8" standalone="no" ?>
<gpx xmlns="http://www.topografix.com/GPX/1/1" xmlns:xsi="http://www.w3.org/2001/XMLSchema-instance" xsi:schemaLocation="http://www.topografix.com/GPX/1/1 http://www.topografix.com/GPX/1/1/gpx.xsd" version="1.1" creator="VisuGPX - https://www.visugpx.com">
  <metadata>
    <name>J3 Aix StLaurent la Prée</name>
    <desc><![CDATA[gnerando idor:81764008_13786731_20053845]]></desc>
  </metadata>
  <trk>
    <name><![CDATA[St Laurent des Prée 7,5 km 20053845]]></name>
    <extensions>
      <line xmlns="http://www.topografix.com/GPX/gpx_style/0/2">
        <color>008000</color>
        <width>4</width>
      </line>
    </extensions>
    <trkseg>
      <trkpt lat="45.98035" lon="-1.04124">
        <ele>5</ele>
        <time>2025-01-08T12:42:30Z</time>
      </trkpt>
      <trkpt lat="45.98027" lon="-1.04115">
        <ele>5</ele>
        <time>2025-01-08T12:42:44Z</time>
      </trkpt>
      <trkpt lat="45.98011" lon="-1.04089">
        <ele>5</ele>
        <time>2025-01-08T12:43:16Z</time>
      </trkpt>
      <trkpt lat="45.98" lon="-1.04066">
        <ele>5</ele>
        <time>2025-01-08T12:43:42Z</time>
      </trkpt>
      <trkpt lat="45.97967" lon="-1.03982">
        <ele>4</ele>
        <time>2025-01-08T12:45:11Z</time>
      </trkpt>
      <trkpt lat="45.97944" lon="-1.03916">
        <ele>3</ele>
        <time>2025-01-08T12:46:20Z</time>
      </trkpt>
      <trkpt lat="45.97944" lon="-1.039">
        <ele>3</ele>
        <time>2025-01-08T12:46:34Z</time>
      </trkpt>
      <trkpt lat="45.97939" lon="-1.03907">
        <ele>3</ele>
        <time>2025-01-08T12:46:44Z</time>
      </trkpt>
      <trkpt lat="45.97695" lon="-1.04275">
        <ele>2</ele>
        <time>2025-01-08T12:54:35Z</time>
      </trkpt>
      <trkpt lat="45.9768" lon="-1.04292">
        <ele>2</ele>
        <time>2025-01-08T12:55:01Z</time>
      </trkpt>
      <trkpt lat="45.97659" lon="-1.04305">
        <ele>2</ele>
        <time>2025-01-08T12:55:31Z</time>
      </trkpt>
      <trkpt lat="45.97649" lon="-1.04315">
        <ele>2</ele>
        <time>2025-01-08T12:55:48Z</time>
      </trkpt>
      <trkpt lat="45.97641" lon="-1.04315">
        <ele>2</ele>
        <time>2025-01-08T12:55:58Z</time>
      </trkpt>
      <trkpt lat="45.97606" lon="-1.04332">
        <ele>1</ele>
        <time>2025-01-08T12:56:48Z</time>
      </trkpt>
      <trkpt lat="45.97569" lon="-1.04355">
        <ele>1</ele>
        <time>2025-01-08T12:57:41Z</time>
      </trkpt>
      <trkpt lat="45.97517" lon="-1.04375">
        <ele>1</ele>
        <time>2025-01-08T12:58:53Z</time>
      </trkpt>
      <trkpt lat="45.97396" lon="-1.04405">
        <ele>1</ele>
        <time>2025-01-08T13:01:37Z</time>
      </trkpt>
      <trkpt lat="45.9737" lon="-1.04416">
        <ele>2</ele>
        <time>2025-01-08T13:02:13Z</time>
      </trkpt>
      <trkpt lat="45.97343" lon="-1.04419">
        <ele>2</ele>
        <time>2025-01-08T13:02:49Z</time>
      </trkpt>
      <trkpt lat="45.97326" lon="-1.04426">
        <ele>2</ele>
        <time>2025-01-08T13:03:13Z</time>
      </trkpt>
      <trkpt lat="45.97302" lon="-1.04449">
        <ele>2</ele>
        <time>2025-01-08T13:03:51Z</time>
      </trkpt>
      <trkpt lat="45.97284" lon="-1.0446">
        <ele>2</ele>
        <time>2025-01-08T13:04:18Z</time>
      </trkpt>
      <trkpt lat="45.97244" lon="-1.04469">
        <ele>2</ele>
        <time>2025-01-08T13:05:12Z</time>
      </trkpt>
      <trkpt lat="45.97229" lon="-1.04485">
        <ele>2</ele>
        <time>2025-01-08T13:05:37Z</time>
      </trkpt>
      <trkpt lat="45.97216" lon="-1.04494">
        <ele>2</ele>
        <time>2025-01-08T13:05:56Z</time>
      </trkpt>
      <trkpt lat="45.97166" lon="-1.04506">
        <ele>1</ele>
        <time>2025-01-08T13:07:03Z</time>
      </trkpt>
      <trkpt lat="45.97146" lon="-1.04519">
        <ele>1</ele>
        <time>2025-01-08T13:07:33Z</time>
      </trkpt>
      <trkpt lat="45.97102" lon="-1.04571">
        <ele>2</ele>
        <time>2025-01-08T13:08:49Z</time>
      </trkpt>
      <trkpt lat="45.97065" lon="-1.04611">
        <ele>3</ele>
        <time>2025-01-08T13:09:50Z</time>
      </trkpt>
      <trkpt lat="45.96971" lon="-1.04669">
        <ele>4</ele>
        <time>2025-01-08T13:12:07Z</time>
      </trkpt>
      <trkpt lat="45.96948" lon="-1.04669">
        <ele>4</ele>
        <time>2025-01-08T13:12:38Z</time>
      </trkpt>
      <trkpt lat="45.96908" lon="-1.0465">
        <ele>2</ele>
        <time>2025-01-08T13:13:34Z</time>
      </trkpt>
      <trkpt lat="45.96874" lon="-1.04654">
        <ele>2</ele>
        <time>2025-01-08T13:14:19Z</time>
      </trkpt>
      <trkpt lat="45.96858" lon="-1.04661">
        <ele>2</ele>
        <time>2025-01-08T13:14:42Z</time>
      </trkpt>
      <trkpt lat="45.96835" lon="-1.04677">
        <ele>2</ele>
        <time>2025-01-08T13:15:16Z</time>
      </trkpt>
      <trkpt lat="45.96757" lon="-1.04722">
        <ele>2</ele>
        <time>2025-01-08T13:17:08Z</time>
      </trkpt>
      <trkpt lat="45.96754" lon="-1.04739">
        <ele>2</ele>
        <time>2025-01-08T13:17:24Z</time>
      </trkpt>
      <trkpt lat="45.96743" lon="-1.04754">
        <ele>2</ele>
        <time>2025-01-08T13:17:44Z</time>
      </trkpt>
      <trkpt lat="45.9666" lon="-1.04876">
        <ele>2</ele>
        <time>2025-01-08T13:20:23Z</time>
      </trkpt>
      <trkpt lat="45.96652" lon="-1.04885">
        <ele>3</ele>
        <time>2025-01-08T13:20:36Z</time>
      </trkpt>
      <trkpt lat="45.96643" lon="-1.0489">
        <ele>2</ele>
        <time>2025-01-08T13:20:49Z</time>
      </trkpt>
      <trkpt lat="45.96519" lon="-1.04938">
        <ele>2</ele>
        <time>2025-01-08T13:23:41Z</time>
      </trkpt>
      <trkpt lat="45.96513" lon="-1.04942">
        <ele>2</ele>
        <time>2025-01-08T13:23:49Z</time>
      </trkpt>
      <trkpt lat="45.96514" lon="-1.04955">
        <ele>2</ele>
        <time>2025-01-08T13:24:02Z</time>
      </trkpt>
      <trkpt lat="45.96521" lon="-1.04972">
        <ele>2</ele>
        <time>2025-01-08T13:24:20Z</time>
      </trkpt>
      <trkpt lat="45.96514" lon="-1.04955">
        <ele>2</ele>
        <time>2025-01-08T13:24:38Z</time>
      </trkpt>
      <trkpt lat="45.96513" lon="-1.04942">
        <ele>2</ele>
        <time>2025-01-08T13:24:50Z</time>
      </trkpt>
      <trkpt lat="45.96507" lon="-1.04934">
        <ele>2</ele>
        <time>2025-01-08T13:25:01Z</time>
      </trkpt>
      <trkpt lat="45.96471" lon="-1.04837">
        <ele>3</ele>
        <time>2025-01-08T13:26:43Z</time>
      </trkpt>
      <trkpt lat="45.96442" lon="-1.0476">
        <ele>2</ele>
        <time>2025-01-08T13:28:04Z</time>
      </trkpt>
      <trkpt lat="45.96424" lon="-1.0473">
        <ele>2</ele>
        <time>2025-01-08T13:28:41Z</time>
      </trkpt>
      <trkpt lat="45.96334" lon="-1.04619">
        <ele>2</ele>
        <time>2025-01-08T13:31:19Z</time>
      </trkpt>
      <trkpt lat="45.96309" lon="-1.04601">
        <ele>2</ele>
        <time>2025-01-08T13:31:57Z</time>
      </trkpt>
      <trkpt lat="45.96125" lon="-1.0452">
        <ele>3</ele>
        <time>2025-01-08T13:36:13Z</time>
      </trkpt>
      <trkpt lat="45.96119" lon="-1.04517">
        <ele>3</ele>
        <time>2025-01-08T13:36:22Z</time>
      </trkpt>
      <trkpt lat="45.96115" lon="-1.04513">
        <ele>3</ele>
        <time>2025-01-08T13:36:28Z</time>
      </trkpt>
      <trkpt lat="45.96103" lon="-1.04512">
        <ele>3</ele>
        <time>2025-01-08T13:36:45Z</time>
      </trkpt>
      <trkpt lat="45.96115" lon="-1.04513">
        <ele>3</ele>
        <time>2025-01-08T13:37:01Z</time>
      </trkpt>
      <trkpt lat="45.96116" lon="-1.04497">
        <ele>3</ele>
        <time>2025-01-08T13:37:15Z</time>
      </trkpt>
      <trkpt lat="45.96127" lon="-1.04468">
        <ele>3</ele>
        <time>2025-01-08T13:37:46Z</time>
      </trkpt>
      <trkpt lat="45.96133" lon="-1.04437">
        <ele>2</ele>
        <time>2025-01-08T13:38:16Z</time>
      </trkpt>
      <trkpt lat="45.96134" lon="-1.0442">
        <ele>2</ele>
        <time>2025-01-08T13:38:32Z</time>
      </trkpt>
      <trkpt lat="45.96132" lon="-1.04407">
        <ele>2</ele>
        <time>2025-01-08T13:38:44Z</time>
      </trkpt>
      <trkpt lat="45.96123" lon="-1.04382">
        <ele>1</ele>
        <time>2025-01-08T13:39:10Z</time>
      </trkpt>
      <trkpt lat="45.96122" lon="-1.04363">
        <ele>1</ele>
        <time>2025-01-08T13:39:28Z</time>
      </trkpt>
      <trkpt lat="45.96156" lon="-1.0412">
        <ele>1</ele>
        <time>2025-01-08T13:43:18Z</time>
      </trkpt>
      <trkpt lat="45.96163" lon="-1.04049">
        <ele>1</ele>
        <time>2025-01-08T13:44:24Z</time>
      </trkpt>
      <trkpt lat="45.96225" lon="-1.03822">
        <ele>2</ele>
        <time>2025-01-08T13:48:11Z</time>
      </trkpt>
      <trkpt lat="45.96242" lon="-1.03777">
        <ele>1</ele>
        <time>2025-01-08T13:48:58Z</time>
      </trkpt>
      <trkpt lat="45.96256" lon="-1.03747">
        <ele>1</ele>
        <time>2025-01-08T13:49:32Z</time>
      </trkpt>
      <trkpt lat="45.96266" lon="-1.03719">
        <ele>2</ele>
        <time>2025-01-08T13:50:01Z</time>
      </trkpt>
      <trkpt lat="45.96275" lon="-1.0367">
        <ele>3</ele>
        <time>2025-01-08T13:50:48Z</time>
      </trkpt>
      <trkpt lat="45.96282" lon="-1.03616">
        <ele>2</ele>
        <time>2025-01-08T13:51:39Z</time>
      </trkpt>
      <trkpt lat="45.96284" lon="-1.03585">
        <ele>1</ele>
        <time>2025-01-08T13:52:08Z</time>
      </trkpt>
      <trkpt lat="45.96277" lon="-1.03529">
        <ele>1</ele>
        <time>2025-01-08T13:53:00Z</time>
      </trkpt>
      <trkpt lat="45.96271" lon="-1.03467">
        <ele>1</ele>
        <time>2025-01-08T13:53:59Z</time>
      </trkpt>
      <trkpt lat="45.96268" lon="-1.03391">
        <ele>2</ele>
        <time>2025-01-08T13:55:09Z</time>
      </trkpt>
      <trkpt lat="45.96276" lon="-1.03343">
        <ele>3</ele>
        <time>2025-01-08T13:55:55Z</time>
      </trkpt>
      <trkpt lat="45.96316" lon="-1.03184">
        <ele>3</ele>
        <time>2025-01-08T13:58:32Z</time>
      </trkpt>
      <trkpt lat="45.96376" lon="-1.02927">
        <ele>3</ele>
        <time>2025-01-08T14:02:43Z</time>
      </trkpt>
      <trkpt lat="45.96425" lon="-1.02693">
        <ele>1</ele>
        <time>2025-01-08T14:06:30Z</time>
      </trkpt>
      <trkpt lat="45.96436" lon="-1.02632">
        <ele>1</ele>
        <time>2025-01-08T14:07:28Z</time>
      </trkpt>
      <trkpt lat="45.96438" lon="-1.0262">
        <ele>1</ele>
        <time>2025-01-08T14:07:40Z</time>
      </trkpt>
      <trkpt lat="45.96468" lon="-1.02636">
        <ele>3</ele>
        <time>2025-01-08T14:08:23Z</time>
      </trkpt>
      <trkpt lat="45.9649" lon="-1.02653">
        <ele>2.8</ele>
        <time>2025-01-08T14:08:56Z</time>
      </trkpt>
      <trkpt lat="45.9671" lon="-1.02828">
        <ele>1</ele>
        <time>2025-01-08T14:14:31Z</time>
      </trkpt>
      <trkpt lat="45.97151" lon="-1.03183">
        <ele>3</ele>
        <time>2025-01-08T14:25:46Z</time>
      </trkpt>
      <trkpt lat="45.97162" lon="-1.03195">
        <ele>3</ele>
        <time>2025-01-08T14:26:04Z</time>
      </trkpt>
      <trkpt lat="45.97485" lon="-1.0345">
        <ele>1</ele>
        <time>2025-01-08T14:34:16Z</time>
      </trkpt>
      <trkpt lat="45.9749" lon="-1.03446">
        <ele>1</ele>
        <time>2025-01-08T14:34:23Z</time>
      </trkpt>
      <trkpt lat="45.97508" lon="-1.03429">
        <ele>3</ele>
        <time>2025-01-08T14:34:52Z</time>
      </trkpt>
      <trkpt lat="45.98164" lon="-1.03013">
        <ele>1</ele>
        <time>2025-01-08T14:50:49Z</time>
      </trkpt>
      <trkpt lat="45.98181" lon="-1.03">
        <ele>1</ele>
        <time>2025-01-08T14:51:14Z</time>
      </trkpt>
      <trkpt lat="45.98181" lon="-1.02999">
        <ele>1</ele>
        <time>2025-01-08T14:51:15Z</time>
      </trkpt>
      <trkpt lat="45.98181" lon="-1.03">
        <ele>1</ele>
        <time>2025-01-08T14:51:16Z</time>
      </trkpt>
      <trkpt lat="45.98224" lon="-1.03033">
        <ele>1</ele>
        <time>2025-01-08T14:52:21Z</time>
      </trkpt>
      <trkpt lat="45.98256" lon="-1.03053">
        <ele>2</ele>
        <time>2025-01-08T14:53:08Z</time>
      </trkpt>
      <trkpt lat="45.98279" lon="-1.03063">
        <ele>3</ele>
        <time>2025-01-08T14:53:40Z</time>
      </trkpt>
      <trkpt lat="45.9829" lon="-1.0307">
        <ele>4</ele>
        <time>2025-01-08T14:53:56Z</time>
      </trkpt>
      <trkpt lat="45.98236" lon="-1.03185">
        <ele>3</ele>
        <time>2025-01-08T14:56:05Z</time>
      </trkpt>
      <trkpt lat="45.982" lon="-1.03269">
        <ele>4</ele>
        <time>2025-01-08T14:57:36Z</time>
      </trkpt>
      <trkpt lat="45.98121" lon="-1.03427">
        <ele>4</ele>
        <time>2025-01-08T15:00:37Z</time>
      </trkpt>
      <trkpt lat="45.9805" lon="-1.03573">
        <ele>3</ele>
        <time>2025-01-08T15:03:22Z</time>
      </trkpt>
      <trkpt lat="45.98036" lon="-1.03631">
        <ele>3</ele>
        <time>2025-01-08T15:04:19Z</time>
      </trkpt>
      <trkpt lat="45.98031" lon="-1.03665">
        <ele>3</ele>
        <time>2025-01-08T15:04:51Z</time>
      </trkpt>
      <trkpt lat="45.9803" lon="-1.03713">
        <ele>3</ele>
        <time>2025-01-08T15:05:36Z</time>
      </trkpt>
      <trkpt lat="45.98019" lon="-1.03764">
        <ele>3</ele>
        <time>2025-01-08T15:06:25Z</time>
      </trkpt>
      <trkpt lat="45.98011" lon="-1.03793">
        <ele>3</ele>
        <time>2025-01-08T15:06:54Z</time>
      </trkpt>
      <trkpt lat="45.97944" lon="-1.039">
        <ele>3</ele>
        <time>2025-01-08T15:09:08Z</time>
      </trkpt>
      <trkpt lat="45.97944" lon="-1.03916">
        <ele>3</ele>
        <time>2025-01-08T15:09:23Z</time>
      </trkpt>
      <trkpt lat="45.97967" lon="-1.03982">
        <ele>4</ele>
        <time>2025-01-08T15:10:31Z</time>
      </trkpt>
      <trkpt lat="45.98" lon="-1.04066">
        <ele>5</ele>
        <time>2025-01-08T15:12:01Z</time>
        <extensions>
          <visugpx:TrkExtension xmlns:visugpx="https://www.visugpx.com/editgpx/">
            <visugpx:node>1</visugpx:node>
            </visugpx:TrkExtension>
        </extensions>
      </trkpt>
    </trkseg>
  </trk>
</gpx>